STATION HISTORICAL DATA FROM WUNDERGROUND.COM FOR HIGH PARK VILLAGE,TORONTO,ON,CANADA
 
Daily Summary for September 23, 2018 Units:  Metric    English   Both
Next Day »
Daily Weekly Monthly Yearly Custom
  Current: High: Low: Average:
Temperature: 8.7 °C 12.2 °C 8 °C 10.1 °C
Dew Point: 5.6 °C 6.9 °C 5 °C 5.9 °C
Humidity: 81% 82% 69% 76%
Wind Speed: 0km/h 3.7km/h 0km/h 1.1km/h
Wind Gust: 0km/h 1km/h - -
WindCalm - - NW
Pressure: 1023.6 hPa 1023.6 hPa 1023.2 hPa -
Precipitation: 0 mm      
Historical Graphs
 
 
Tabular Data for September 23, 2018
Time Temperature Dew Point Pressure Wind Wind Speed Wind Gust Humidity Rainfall Rate (Hourly) Solar Conditions
00:00 12.2 °C 6.7 °C 1023.6 hPa Calm     69% 0 mm 0.00 W/m2
00:04 12.2 °C 6.9 °C 1023.6 hPa Calm     70% 0 mm 0.00 W/m2
00:09 12.1 °C 6.8 °C 1023.6 hPa Calm   0.2 km/h 70% 0 mm 0.00 W/m2
00:15 12.1 °C 6.8 °C 1023.6 hPa SW 1.9 km/h   70% 0 mm 0.00 W/m2
00:19 12.1 °C 6.6 °C 1023.6 hPa Calm     69% 0 mm 0.00 W/m2
00:24 12.1 °C 6.6 °C 1023.6 hPa Calm     69% 0 mm 0.00 W/m2
00:29 12.1 °C 6.6 °C 1023.6 hPa Calm     69% 0 mm 0.00 W/m2
00:34 12 °C 6.5 °C 1023.6 hPa Calm     69% 0 mm 0.00 W/m2
00:39 12 °C 6.5 °C 1023.6 hPa Calm     69% 0 mm 0.00 W/m2
00:44 12 °C 6.5 °C 1023.6 hPa Calm     69% 0 mm 0.00 W/m2
00:49 11.9 °C 6.4 °C 1023.6 hPa Calm     69% 0 mm 0.00 W/m2
00:54 11.9 °C 6.4 °C 1023.2 hPa Calm     69% 0 mm 0.00 W/m2
00:59 11.9 °C 6.7 °C 1023.2 hPa SW 1.9 km/h   70% 0 mm 0.00 W/m2
01:04 11.9 °C 6.6 °C 1023.6 hPa Calm     70% 0 mm 0.00 W/m2
01:09 11.8 °C 6.6 °C 1023.2 hPa Calm     70% 0 mm 0.00 W/m2
01:14 11.8 °C 6.6 °C 1023.2 hPa Calm     70% 0 mm 0.00 W/m2
01:19 11.8 °C 6.6 °C 1023.2 hPa Calm     70% 0 mm 0.00 W/m2
01:24 11.9 °C 6.6 °C 1023.2 hPa Calm     70% 0 mm 0.00 W/m2
01:29 11.9 °C 6.7 °C 1023.2 hPa SW 1.9 km/h   70% 0 mm 0.00 W/m2
01:34 12 °C 6.7 °C 1023.6 hPa Calm     70% 0 mm 0.00 W/m2
01:39 12.1 °C 6.6 °C 1023.2 hPa Calm     69% 0 mm 0.00 W/m2
01:44 12.1 °C 6.6 °C 1023.2 hPa Calm     69% 0 mm 0.00 W/m2
01:49 12.1 °C 6.6 °C 1023.2 hPa Calm     69% 0 mm 0.00 W/m2
01:54 12.1 °C 6.6 °C 1023.2 hPa Calm     69% 0 mm 0.00 W/m2
01:59 12.2 °C 6.7 °C 1023.2 hPa Calm     69% 0 mm 0.00 W/m2
02:04 12.1 °C 6.6 °C 1023.2 hPa Calm     69% 0 mm 0.00 W/m2
02:09 12.1 °C 6.6 °C 1023.2 hPa Calm     69% 0 mm 0.00 W/m2
02:14 12.1 °C 6.6 °C 1023.2 hPa Calm     69% 0 mm 0.00 W/m2
02:19 12.1 °C 6.6 °C 1023.2 hPa Calm     69% 0 mm 0.00 W/m2
02:24 12 °C 6.7 °C 1023.2 hPa Calm     70% 0 mm 0.00 W/m2
02:29 11.9 °C 6.7 °C 1023.2 hPa Calm     70% 0 mm 0.00 W/m2
02:34 11.9 °C 6.7 °C 1023.2 hPa Calm     70% 0 mm 0.00 W/m2
02:39 11.9 °C 6.6 °C 1023.2 hPa Calm     70% 0 mm 0.00 W/m2
02:44 11.8 °C 6.6 °C 1023.2 hPa Calm     70% 0 mm 0.00 W/m2
02:49 11.8 °C 6.5 °C 1023.2 hPa Calm     70% 0 mm 0.00 W/m2
02:54 11.7 °C 6.4 °C 1023.2 hPa SW 1.9 km/h   70% 0 mm 0.00 W/m2
02:59 11.6 °C 6.3 °C 1023.2 hPa Calm     70% 0 mm 0.00 W/m2
03:04 11.6 °C 6.3 °C 1023.2 hPa Calm     70% 0 mm 0.00 W/m2
03:09 11.5 °C 6.4 °C 1023.2 hPa WSW 1.9 km/h 0.5 km/h 71% 0 mm 0.00 W/m2
03:14 11.4 °C 6.4 °C 1023.2 hPa West 1.9 km/h 0.5 km/h 71% 0 mm 0.00 W/m2
03:19 11.3 °C 6.3 °C 1023.2 hPa NW 1.9 km/h   71% 0 mm 0.00 W/m2
03:24 11.3 °C 6.2 °C 1023.2 hPa NNW 1.9 km/h 0.2 km/h 71% 0 mm 0.00 W/m2
03:29 11.2 °C 6.2 °C 1023.2 hPa NNW 1.9 km/h 0.3 km/h 71% 0 mm 0.00 W/m2
03:34 11.2 °C 6.3 °C 1023.2 hPa NNW 1.9 km/h 0.2 km/h 72% 0 mm 0.00 W/m2
03:39 11.1 °C 6.2 °C 1023.2 hPa NNW 1.9 km/h 0.3 km/h 72% 0 mm 0.00 W/m2
03:44 10.8 °C 6.2 °C 1023.2 hPa NNW 1.9 km/h 0.2 km/h 73% 0 mm 0.00 W/m2
03:49 10.6 °C 5.9 °C 1023.2 hPa NNW 1.9 km/h   73% 0 mm 0.00 W/m2
03:54 10.2 °C 5.8 °C 1023.2 hPa NNW 1.9 km/h 0.3 km/h 74% 0 mm 0.00 W/m2
03:59 9.9 °C 5.7 °C 1023.2 hPa NNW 3.7 km/h 0.3 km/h 75% 0 mm 0.00 W/m2
04:04 9.7 °C 5.7 °C 1023.2 hPa NNW 3.7 km/h 0.6 km/h 76% 0 mm 0.00 W/m2
04:09 9.6 °C 5.7 °C 1023.6 hPa NNW 1.9 km/h 0.2 km/h 77% 0 mm 0.00 W/m2
04:14 9.4 °C 5.6 °C 1023.6 hPa NNW 3.7 km/h 0.5 km/h 77% 0 mm 0.00 W/m2
04:19 9.3 °C 5.7 °C 1023.6 hPa Calm     78% 0 mm 0.00 W/m2
04:24 9.2 °C 5.6 °C 1023.6 hPa Calm     78% 0 mm 0.00 W/m2
04:29 9.2 °C 5.7 °C 1023.6 hPa Calm     79% 0 mm 0.00 W/m2
04:34 9.1 °C 5.7 °C 1023.6 hPa NNW 1.9 km/h   79% 0 mm 0.00 W/m2
04:39 9.1 °C 5.6 °C 1023.6 hPa NNW 1.6 km/h   79% 0 mm 0.00 W/m2
04:44 9.1 °C 5.6 °C 1023.6 hPa NNW 1.9 km/h   79% 0 mm 0.00 W/m2
04:49 9 °C 5.6 °C 1023.6 hPa NNW 1.9 km/h   79% 0 mm 0.00 W/m2
04:54 9 °C 5.6 °C 1023.6 hPa Calm     79% 0 mm 0.00 W/m2
04:59 9.1 °C 5.8 °C 1023.6 hPa Calm     80% 0 mm 0.00 W/m2
05:04 9.1 °C 5.6 °C 1023.6 hPa Calm     79% 0 mm 0.00 W/m2
05:09 9.1 °C 5.6 °C 1023.6 hPa Calm     79% 0 mm 0.00 W/m2
05:14 9.1 °C 5.6 °C 1023.6 hPa Calm     79% 0 mm 0.00 W/m2
05:19 9 °C 5.6 °C 1023.6 hPa Calm     79% 0 mm 0.00 W/m2
05:24 8.9 °C 5.5 °C 1023.6 hPa NNW 1.9 km/h   79% 0 mm 0.00 W/m2
05:29 8.8 °C 5.4 °C 1023.6 hPa NNW 1.9 km/h 0.6 km/h 79% 0 mm 0.00 W/m2
05:34 8.8 °C 5.6 °C 1023.6 hPa NNW 1.9 km/h 0.6 km/h 80% 0 mm 0.00 W/m2
05:39 8.8 °C 5.6 °C 1023.6 hPa NNW 1.9 km/h 0.8 km/h 80% 0 mm 0.00 W/m2
05:44 8.8 °C 5.6 °C 1023.6 hPa NNW 1.9 km/h 0.8 km/h 80% 0 mm 0.00 W/m2
05:49 8.7 °C 5.4 °C 1023.6 hPa NNW 3.7 km/h 1 km/h 80% 0 mm 0.00 W/m2
05:54 8.6 °C 5.3 °C 1023.6 hPa NNW 3.7 km/h 0.8 km/h 80% 0 mm 0.00 W/m2
05:59 8.4 °C 5.2 °C 1023.6 hPa NNW 1.9 km/h 0.3 km/h 80% 0 mm 0.00 W/m2
06:04 8.3 °C 5.3 °C 1023.6 hPa NNW 1.9 km/h 0.2 km/h 81% 0 mm 0.00 W/m2
06:09 8.2 °C 5.2 °C 1023.2 hPa NNW 1.9 km/h 0.3 km/h 81% 0 mm 0.00 W/m2
06:14 8.2 °C 5.1 °C 1023.6 hPa NNW 3.7 km/h 0.2 km/h 81% 0 mm 0.00 W/m2
06:19 8.1 °C 5.1 °C 1023.6 hPa NNW 1.9 km/h   81% 0 mm 0.00 W/m2
06:24 8.1 °C 5.2 °C 1023.6 hPa Calm     82% 0 mm 0.00 W/m2
06:29 8.1 °C 5.2 °C 1023.2 hPa Calm     82% 0 mm 0.00 W/m2
06:34 8.1 °C 5.2 °C 1023.2 hPa NNW 1.9 km/h   82% 0 mm 0.00 W/m2
06:39 8.1 °C 5.2 °C 1023.6 hPa NNW 1.9 km/h 0.2 km/h 82% 0 mm 0.00 W/m2
06:44 8.1 °C 5.2 °C 1023.2 hPa NNW 1.9 km/h 0.2 km/h 82% 0 mm 0.00 W/m2
06:49 8.1 °C 5.2 °C 1023.2 hPa NNW 1.9 km/h 0.2 km/h 82% 0 mm 0.00 W/m2
06:54 8 °C 5.1 °C 1023.2 hPa Calm     82% 0 mm 0.00 W/m2
06:59 8.1 °C 5.2 °C 1023.2 hPa NNW 1.9 km/h 0.2 km/h 82% 0 mm 0.00 W/m2
07:04 8.1 °C 5.2 °C 1023.2 hPa NNW 1.9 km/h   82% 0 mm 0.00 W/m2 CLR
07:09 8.1 °C 5.2 °C 1023.2 hPa Calm     82% 0 mm 0.00 W/m2 CLR
07:14 8.2 °C 5.3 °C 1023.6 hPa Calm   0.2 km/h 82% 0 mm 0.00 W/m2 CLR
07:19 8.2 °C 5.3 °C 1023.6 hPa NNW 1.9 km/h 0.3 km/h 82% 0 mm 0.00 W/m2 CLR
07:24 8.3 °C 5.2 °C 1023.6 hPa NNW 3.7 km/h 0.5 km/h 81% 0 mm 5.00 W/m2 CLR
07:29 8.2 °C 5.2 °C 1023.6 hPa NNW 1.9 km/h 0.3 km/h 81% 0 mm 5.00 W/m2 CLR
07:34 8.1 °C 5.1 °C 1023.6 hPa NNW 1.9 km/h   81% 0 mm 7.00 W/m2 CLR
07:39 8.1 °C 5 °C 1023.6 hPa NNW 1.9 km/h 0.3 km/h 81% 0 mm 7.00 W/m2 CLR
07:44 8.1 °C 5 °C 1023.6 hPa NNW 1.9 km/h 0.5 km/h 81% 0 mm 9.00 W/m2 CLR
07:49 8.1 °C 5.2 °C 1023.6 hPa NNW 1.9 km/h   82% 0 mm 11.00 W/m2 CLR
07:54 8.1 °C 5.2 °C 1023.6 hPa Calm     82% 0 mm 11.00 W/m2 CLR
07:59 8.1 °C 5.2 °C 1023.6 hPa NNW 1.9 km/h   82% 0 mm 12.00 W/m2 CLR
08:04 8.2 °C 5.3 °C 1023.6 hPa Calm     82% 0 mm 12.00 W/m2 CLR
08:09 8.3 °C 5.4 °C 1023.6 hPa Calm     82% 0 mm 12.00 W/m2 CLR
08:14 8.4 °C 5.3 °C 1023.6 hPa Calm     81% 0 mm 14.00 W/m2 CLR
08:19 8.6 °C 5.5 °C 1023.6 hPa NNW 1.9 km/h   81% 0 mm 14.00 W/m2 CLR
08:24 8.7 °C 5.6 °C 1023.6 hPa Calm     81% 0 mm 14.00 W/m2 CLR
High Park Village Arhives